createdAt,value
2024-03-14T00:01:15.110Z,2.40
2024-03-14T00:03:41.710Z,2.13
2024-03-14T00:06:11.384Z,4.82
2024-03-14T00:08:38.016Z,1.90
2024-03-14T00:11:10.015Z,2.20
2024-03-14T00:13:36.782Z,3.55
2024-03-14T00:16:06.250Z,5.93
2024-03-14T00:18:33.496Z,4.03
2024-03-14T00:21:00.665Z,3.45
2024-03-14T00:23:27.448Z,4.45
2024-03-14T00:25:54.026Z,6.13
2024-03-14T00:28:20.640Z,5.43
2024-03-14T00:30:47.385Z,6.93
2024-03-14T00:33:14.269Z,7.90
2024-03-14T00:35:40.996Z,8.60
2024-03-14T00:38:08.601Z,10.15
2024-03-14T00:40:36.927Z,8.90
2024-03-14T00:43:03.571Z,8.82
2024-03-14T00:45:30.515Z,9.65
2024-03-14T00:47:57.691Z,9.85
2024-03-14T00:50:24.462Z,9.38
2024-03-14T00:52:51.077Z,9.50
2024-03-14T00:55:18.199Z,11.10
2024-03-14T00:57:44.838Z,10.90
2024-03-14T01:00:13.221Z,10.73
2024-03-14T01:02:40.231Z,10.23
2024-03-14T01:05:07.045Z,10.25
2024-03-14T01:07:33.742Z,10.45
2024-03-14T01:10:00.420Z,11.75
2024-03-14T01:12:27.104Z,10.80
2024-03-14T01:14:53.882Z,11.18
2024-03-14T01:17:20.651Z,10.75
2024-03-14T01:19:48.155Z,10.15
2024-03-14T01:22:17.813Z,9.82
2024-03-14T01:24:44.640Z,10.35
2024-03-14T01:27:11.395Z,10.30
2024-03-14T01:29:39.170Z,9.80
2024-03-14T01:32:05.898Z,11.18
2024-03-14T01:34:32.585Z,10.23
2024-03-14T01:37:03.925Z,10.23
2024-03-14T01:39:32.662Z,10.27
2024-03-14T01:41:59.496Z,10.57
2024-03-14T01:44:38.885Z,9.70
2024-03-14T01:47:06.824Z,10.23
2024-03-14T01:49:34.339Z,9.48
2024-03-14T01:52:00.982Z,9.73
2024-03-14T01:54:27.812Z,9.18
2024-03-14T01:57:00.407Z,9.48
2024-03-14T01:59:29.901Z,9.55
2024-03-14T02:01:58.052Z,8.88
2024-03-14T02:04:34.681Z,9.27
2024-03-14T02:07:14.403Z,9.43
2024-03-14T02:09:41.976Z,9.45
2024-03-14T02:12:09.083Z,10.00
2024-03-14T02:14:35.909Z,9.60
2024-03-14T02:17:06.373Z,10.57
2024-03-14T02:19:33.814Z,9.65
2024-03-14T02:22:03.596Z,9.52
2024-03-14T02:24:32.461Z,10.38
2024-03-14T02:27:05.136Z,9.02
2024-03-14T02:29:31.899Z,9.00
2024-03-14T02:31:58.616Z,9.40
2024-03-14T02:34:26.414Z,10.45
2024-03-14T02:36:53.066Z,9.82
2024-03-14T02:39:24.029Z,9.30
2024-03-14T02:41:51.870Z,9.57
2024-03-14T02:44:19.314Z,9.30
2024-03-14T02:46:52.085Z,9.98
2024-03-14T02:49:22.729Z,9.90
2024-03-14T02:51:49.451Z,9.52
2024-03-14T02:54:16.965Z,9.70
2024-03-14T02:56:48.913Z,9.32
2024-03-14T02:59:15.752Z,9.32
2024-03-14T03:01:42.554Z,10.57
2024-03-14T03:04:10.648Z,10.80
2024-03-14T03:06:46.077Z,9.40
2024-03-14T03:09:13.148Z,10.70
2024-03-14T03:11:39.784Z,10.02
2024-03-14T03:14:06.952Z,9.95
2024-03-14T03:16:34.162Z,9.95
2024-03-14T03:19:01.193Z,11.27
2024-03-14T03:21:32.884Z,10.20
2024-03-14T03:23:59.539Z,9.70
2024-03-14T03:26:26.866Z,11.98
2024-03-14T03:28:53.654Z,10.95
2024-03-14T03:31:20.380Z,9.38
2024-03-14T03:33:49.424Z,10.38
2024-03-14T03:36:16.127Z,10.73
2024-03-14T03:38:43.606Z,10.18
2024-03-14T03:41:13.516Z,11.40
2024-03-14T03:43:40.323Z,11.40
2024-03-14T03:46:10.952Z,11.63
2024-03-14T03:48:38.869Z,10.85
2024-03-14T03:51:06.641Z,11.38
2024-03-14T03:53:36.192Z,11.23
2024-03-14T03:56:06.370Z,11.23
2024-03-14T03:58:35.750Z,11.27
2024-03-14T04:01:11.728Z,11.65
2024-03-14T04:03:41.744Z,11.57
2024-03-14T04:06:12.017Z,11.50
2024-03-14T04:08:38.944Z,12.50
2024-03-14T04:11:09.033Z,11.90
2024-03-14T04:13:36.998Z,11.93
2024-03-14T04:16:05.850Z,12.82
2024-03-14T04:18:33.069Z,12.70
2024-03-14T04:20:59.852Z,12.98
2024-03-14T04:23:26.532Z,13.48
2024-03-14T04:25:57.543Z,13.07
2024-03-14T04:28:24.994Z,14.40
2024-03-14T04:30:54.558Z,14.52
2024-03-14T04:33:21.474Z,14.77
2024-03-14T04:35:48.550Z,14.73
2024-03-14T04:38:15.200Z,15.60
2024-03-14T04:40:41.774Z,16.15
2024-03-14T04:43:11.098Z,14.52
2024-03-14T04:45:37.919Z,14.80
2024-03-14T04:48:07.088Z,15.30
2024-03-14T04:50:34.370Z,15.93
2024-03-14T04:53:00.995Z,15.13
2024-03-14T04:55:28.460Z,16.60
2024-03-14T04:57:55.286Z,15.52
2024-03-14T05:00:23.198Z,17.80
2024-03-14T05:02:52.043Z,16.10
2024-03-14T05:05:19.606Z,17.05
2024-03-14T05:07:46.484Z,16.83
2024-03-14T05:10:20.680Z,17.40
2024-03-14T05:12:48.128Z,16.83
2024-03-14T05:15:16.365Z,17.63
2024-03-14T05:17:43.746Z,16.80
2024-03-14T05:20:15.506Z,17.17
2024-03-14T05:22:43.064Z,21.88
2024-03-14T05:25:12.521Z,18.00
2024-03-14T05:27:39.416Z,19.48
2024-03-14T05:30:06.788Z,22.60
2024-03-14T05:32:34.011Z,19.85
2024-03-14T05:35:01.742Z,19.50
2024-03-14T05:37:29.399Z,20.30
2024-03-14T05:39:57.997Z,19.75
2024-03-14T05:42:24.880Z,20.23
2024-03-14T05:44:51.701Z,19.05
2024-03-14T05:47:18.392Z,19.15
2024-03-14T05:49:45.113Z,19.42
2024-03-14T05:52:12.909Z,21.10
2024-03-14T05:54:40.346Z,22.45
2024-03-14T05:57:07.714Z,20.33
2024-03-14T05:59:36.382Z,22.92
2024-03-14T06:02:03.328Z,20.33
2024-03-14T06:04:31.418Z,20.60
2024-03-14T06:06:58.173Z,19.77
2024-03-14T06:09:33.072Z,21.67
2024-03-14T06:12:00.782Z,22.05
2024-03-14T06:14:27.509Z,22.02
2024-03-14T06:16:54.259Z,26.92
2024-03-14T06:19:23.467Z,23.15
2024-03-14T06:21:51.585Z,27.13
2024-03-14T06:24:18.652Z,26.02
2024-03-14T06:26:48.777Z,25.45
2024-03-14T06:29:15.598Z,26.42
2024-03-14T06:31:42.940Z,26.75
2024-03-14T06:34:12.618Z,24.83
2024-03-14T06:36:39.357Z,26.58
2024-03-14T06:39:09.197Z,30.15
2024-03-14T06:41:36.367Z,26.90
2024-03-14T06:44:03.347Z,27.27
2024-03-14T06:46:30.509Z,27.60
2024-03-14T06:48:57.521Z,28.02
2024-03-14T06:51:24.433Z,29.20
2024-03-14T06:53:51.237Z,26.80
2024-03-14T06:56:18.662Z,28.30
2024-03-14T06:58:50.448Z,32.53
2024-03-14T07:01:19.086Z,28.10
2024-03-14T07:03:45.752Z,30.02
2024-03-14T07:06:13.576Z,30.17
2024-03-14T07:08:40.552Z,30.10
2024-03-14T07:11:07.345Z,28.63
2024-03-14T07:13:37.147Z,27.75
2024-03-14T07:16:10.421Z,27.73
2024-03-14T07:18:38.224Z,31.10
2024-03-14T07:21:05.614Z,26.00
2024-03-14T07:23:32.953Z,24.70
2024-03-14T07:26:00.448Z,27.90
2024-03-14T07:28:27.632Z,25.45
2024-03-14T07:30:56.449Z,25.63
2024-03-14T07:33:23.489Z,24.92
2024-03-14T07:35:51.541Z,21.60
2024-03-14T07:38:18.128Z,26.25
2024-03-14T07:40:44.868Z,23.63
2024-03-14T07:43:13.945Z,21.90
2024-03-14T07:45:40.766Z,21.33
2024-03-14T07:48:11.287Z,21.83
2024-03-14T07:50:38.172Z,20.85
2024-03-14T07:53:10.378Z,21.58
2024-03-14T07:55:38.549Z,19.90
2024-03-14T07:58:05.643Z,20.10
2024-03-14T08:00:33.039Z,19.02
2024-03-14T08:02:59.803Z,18.73
2024-03-14T08:05:27.198Z,16.95
2024-03-14T08:08:04.848Z,18.05
2024-03-14T08:10:46.749Z,15.75
2024-03-14T08:13:18.737Z,17.52
2024-03-14T08:15:53.825Z,16.23
2024-03-14T08:18:24.289Z,15.73
2024-03-14T08:20:53.773Z,14.27
2024-03-14T08:23:21.979Z,14.77
2024-03-14T08:25:48.982Z,14.07
2024-03-14T08:28:18.168Z,14.77
2024-03-14T08:30:46.552Z,13.25
2024-03-14T08:33:15.062Z,12.88
2024-03-14T08:35:44.442Z,11.90
2024-03-14T08:38:15.237Z,9.05
2024-03-14T08:40:43.416Z,7.57
2024-03-14T08:43:13.191Z,7.20
2024-03-14T08:45:40.344Z,6.55
2024-03-14T08:48:10.708Z,5.63
2024-03-14T08:50:41.496Z,4.78
2024-03-14T08:53:11.379Z,5.30
2024-03-14T08:55:41.342Z,4.35
2024-03-14T08:58:09.701Z,4.65
2024-03-14T09:00:36.427Z,3.90
2024-03-14T09:03:04.526Z,4.35
2024-03-14T09:05:31.843Z,3.63
2024-03-14T09:07:58.570Z,3.50
2024-03-14T09:10:26.523Z,3.15
2024-03-14T09:12:54.217Z,3.67
2024-03-14T09:15:21.937Z,4.93
2024-03-14T09:17:49.685Z,3.17
2024-03-14T09:20:21.238Z,3.17
2024-03-14T09:22:55.803Z,3.15
2024-03-14T09:25:24.535Z,3.40
2024-03-14T09:27:53.461Z,2.97
2024-03-14T09:30:23.628Z,2.20
2024-03-14T09:32:52.409Z,2.05
2024-03-14T09:35:27.891Z,2.83
2024-03-14T09:37:56.341Z,2.33
2024-03-14T09:40:24.489Z,1.67
2024-03-14T09:43:01.257Z,1.83
2024-03-14T09:45:30.411Z,1.17
2024-03-14T09:47:58.290Z,3.60
2024-03-14T09:50:28.003Z,2.33
2024-03-14T09:52:56.066Z,1.65
2024-03-14T09:55:30.100Z,2.35
2024-03-14T09:57:57.811Z,1.73
2024-03-14T10:00:27.326Z,1.27
2024-03-14T10:02:54.516Z,1.90
2024-03-14T10:05:22.997Z,2.42
2024-03-14T10:07:50.799Z,0.88
2024-03-14T10:10:18.046Z,1.27
2024-03-14T10:12:55.795Z,1.52
2024-03-14T10:15:23.383Z,0.75
2024-03-14T10:17:53.596Z,0.50
2024-03-14T10:20:21.341Z,1.05
2024-03-14T10:22:51.578Z,0.40
2024-03-14T10:25:24.459Z,1.00
2024-03-14T10:28:05.202Z,1.15
2024-03-14T10:30:38.507Z,2.75
2024-03-14T10:33:09.426Z,1.27
2024-03-14T10:35:37.905Z,1.77
2024-03-14T10:38:12.589Z,0.68
2024-03-14T10:40:43.106Z,0.45
2024-03-14T10:43:12.569Z,1.23
2024-03-14T10:45:39.659Z,2.45
2024-03-14T10:48:09.723Z,1.30
2024-03-14T10:50:38.167Z,0.35
2024-03-14T10:53:06.919Z,1.05
2024-03-14T10:55:35.026Z,1.65
2024-03-14T10:58:06.011Z,1.15
2024-03-14T11:00:35.860Z,0.50
2024-03-14T11:03:05.131Z,1.60
2024-03-14T11:05:33.161Z,1.15
2024-03-14T11:08:04.391Z,0.98
2024-03-14T11:10:33.457Z,0.75
2024-03-14T11:13:06.828Z,0.73
2024-03-14T11:15:37.856Z,0.20
2024-03-14T11:18:08.559Z,2.25
2024-03-14T11:20:37.274Z,0.32
2024-03-14T11:23:11.589Z,1.33
2024-03-14T11:25:44.012Z,0.95
2024-03-14T11:28:13.563Z,0.40
2024-03-14T11:30:40.433Z,0.90
2024-03-14T11:33:09.072Z,0.57
2024-03-14T11:35:45.374Z,0.47
2024-03-14T11:38:15.150Z,1.55
2024-03-14T11:40:42.767Z,1.30
2024-03-14T11:43:14.989Z,1.05
2024-03-14T11:45:41.850Z,1.58
2024-03-14T11:48:10.257Z,1.92
2024-03-14T11:50:39.289Z,2.28
2024-03-14T11:53:12.688Z,0.30
2024-03-14T11:55:41.004Z,0.90
2024-03-14T11:58:18.527Z,0.65
2024-03-14T12:00:49.051Z,0.93
2024-03-14T12:03:16.770Z,1.75
2024-03-14T12:05:52.901Z,0.65
2024-03-14T12:08:20.256Z,2.33
2024-03-14T12:10:56.729Z,3.58
2024-03-14T12:13:28.114Z,4.47
2024-03-14T12:16:05.609Z,0.30
2024-03-14T12:18:33.823Z,0.77
2024-03-14T12:21:02.131Z,1.67
2024-03-14T12:23:29.792Z,0.73
2024-03-14T12:26:08.881Z,0.88
2024-03-14T12:28:36.422Z,0.20
2024-03-14T12:31:04.591Z,0.43
2024-03-14T12:33:32.331Z,1.67
2024-03-14T12:36:02.097Z,0.70
2024-03-14T12:38:29.689Z,0.60
2024-03-14T12:40:59.455Z,0.73
2024-03-14T12:43:32.458Z,0.50
2024-03-14T12:46:02.255Z,0.70
2024-03-14T12:48:30.138Z,1.10
2024-03-14T12:51:13.683Z,0.43
2024-03-14T12:53:43.820Z,0.88
2024-03-14T12:56:12.167Z,0.75
2024-03-14T12:58:39.142Z,1.30
2024-03-14T13:01:07.553Z,2.40
2024-03-14T13:03:34.449Z,0.40
2024-03-14T13:06:01.654Z,1.95
2024-03-14T13:08:35.134Z,0.40
2024-03-14T13:11:17.730Z,1.00
2024-03-14T13:13:44.768Z,1.13
2024-03-14T13:16:17.372Z,0.50
2024-03-14T13:18:44.688Z,0.70
2024-03-14T13:21:12.552Z,0.68
2024-03-14T13:23:42.355Z,0.43
2024-03-14T13:26:13.739Z,0.45
2024-03-14T13:28:41.595Z,0.50
2024-03-14T13:31:13.716Z,0.73
2024-03-14T13:33:41.004Z,1.83
2024-03-14T13:36:11.353Z,0.60
2024-03-14T13:38:38.844Z,0.52
2024-03-14T13:41:06.150Z,2.30
2024-03-14T13:43:35.267Z,0.55
2024-03-14T13:46:02.802Z,0.20
2024-03-14T13:48:34.532Z,1.38
2024-03-14T13:51:04.134Z,2.83
2024-03-14T13:53:33.109Z,0.75
2024-03-14T13:56:01.046Z,0.70
2024-03-14T13:58:27.765Z,1.90
2024-03-14T14:01:00.872Z,0.20
2024-03-14T14:03:29.114Z,0.68
2024-03-14T14:05:57.432Z,1.75
2024-03-14T14:08:31.139Z,0.65
2024-03-14T14:10:58.233Z,0.57
2024-03-14T14:13:24.929Z,1.58
2024-03-14T14:15:53.679Z,0.30
2024-03-14T14:18:20.566Z,1.95
2024-03-14T14:20:47.327Z,1.42
2024-03-14T14:23:14.099Z,1.75
2024-03-14T14:25:40.702Z,1.10
2024-03-14T14:28:10.382Z,0.20
2024-03-14T14:30:37.881Z,0.73
2024-03-14T14:33:04.979Z,0.25
2024-03-14T14:35:32.060Z,1.70
2024-03-14T14:37:59.207Z,1.23
2024-03-14T14:40:25.888Z,2.90
2024-03-14T14:42:55.146Z,3.22
2024-03-14T14:45:22.001Z,0.43
2024-03-14T14:47:48.682Z,1.13
2024-03-14T14:50:15.445Z,0.28
2024-03-14T14:52:42.031Z,1.52
2024-03-14T14:55:15.699Z,0.93
2024-03-14T14:57:44.054Z,0.60
2024-03-14T15:00:18.687Z,0.95
2024-03-14T15:02:47.089Z,2.53
2024-03-14T15:05:14.237Z,2.00
2024-03-14T15:07:44.277Z,1.48
2024-03-14T15:10:14.657Z,2.55
2024-03-14T15:12:49.965Z,1.70
2024-03-14T15:15:24.093Z,1.75
2024-03-14T15:17:51.777Z,0.47
2024-03-14T15:20:22.909Z,0.88
2024-03-14T15:22:51.538Z,1.33
2024-03-14T15:25:18.258Z,1.23
2024-03-14T15:27:46.108Z,2.20
2024-03-14T15:30:13.623Z,2.33
2024-03-14T15:32:43.604Z,1.48
2024-03-14T15:35:12.593Z,0.90
2024-03-14T15:37:39.854Z,0.20
2024-03-14T15:40:10.997Z,0.75
2024-03-14T15:42:37.998Z,1.17
2024-03-14T15:45:06.377Z,2.70
2024-03-14T15:47:34.170Z,1.55
2024-03-14T15:50:01.475Z,1.15
2024-03-14T15:52:28.243Z,1.42
2024-03-14T15:54:55.172Z,0.60
2024-03-14T15:57:23.245Z,1.45
2024-03-14T15:59:50.210Z,1.83
2024-03-14T16:02:16.990Z,2.13
2024-03-14T16:04:46.680Z,1.40
2024-03-14T16:07:13.635Z,2.97
2024-03-14T16:09:42.197Z,1.00
2024-03-14T16:12:09.784Z,2.67
2024-03-14T16:14:37.173Z,1.65
2024-03-14T16:17:04.125Z,1.67
2024-03-14T16:19:31.370Z,2.95
2024-03-14T16:21:58.362Z,2.05
2024-03-14T16:24:27.057Z,2.72
2024-03-14T16:26:54.200Z,1.23
2024-03-14T16:29:24.023Z,1.98
2024-03-14T16:31:53.724Z,1.27
2024-03-14T16:34:20.584Z,1.58
2024-03-14T16:36:47.745Z,2.15
2024-03-14T16:39:20.666Z,1.02
2024-03-14T16:41:48.588Z,2.78
2024-03-14T16:44:15.797Z,4.45
2024-03-14T16:46:44.769Z,0.30
2024-03-14T16:49:12.850Z,0.50
2024-03-14T16:51:41.703Z,0.60
2024-03-14T16:54:10.224Z,1.23
2024-03-14T16:56:38.675Z,1.85
2024-03-14T16:59:07.437Z,0.68
2024-03-14T17:01:36.937Z,1.95
2024-03-14T17:04:04.126Z,2.75
2024-03-14T17:06:31.193Z,1.38
2024-03-14T17:08:58.055Z,1.90
2024-03-14T17:11:25.177Z,0.88
2024-03-14T17:13:53.548Z,3.10
2024-03-14T17:16:24.728Z,3.17
2024-03-14T17:18:53.179Z,2.47
2024-03-14T17:21:22.059Z,1.45
2024-03-14T17:23:48.928Z,3.30
2024-03-14T17:26:16.113Z,2.38
2024-03-14T17:28:44.569Z,1.52
2024-03-14T17:31:14.456Z,5.93
2024-03-14T17:33:43.794Z,2.58
2024-03-14T17:36:18.647Z,0.73
2024-03-14T17:38:45.529Z,2.40
2024-03-14T17:41:12.452Z,2.25
2024-03-14T17:43:42.063Z,4.00
2024-03-14T17:46:08.898Z,0.88
2024-03-14T17:48:35.705Z,1.83
2024-03-14T17:51:02.514Z,1.25
2024-03-14T17:53:29.504Z,2.45
2024-03-14T17:55:56.182Z,1.95
2024-03-14T17:58:22.745Z,1.95
2024-03-14T18:00:49.652Z,3.83
2024-03-14T18:03:18.175Z,0.93
2024-03-14T18:05:44.984Z,1.42
2024-03-14T18:08:11.662Z,1.90
2024-03-14T18:10:38.255Z,2.10
2024-03-14T18:13:06.322Z,2.17
2024-03-14T18:15:33.236Z,2.35
2024-03-14T18:18:00.027Z,1.10
2024-03-14T18:20:28.070Z,1.17
2024-03-14T18:22:56.537Z,0.60
2024-03-14T18:25:23.414Z,1.83
2024-03-14T18:27:52.169Z,2.13
2024-03-14T18:30:21.996Z,1.65
2024-03-14T18:32:50.117Z,1.85
2024-03-14T18:35:23.334Z,2.40
2024-03-14T18:37:57.104Z,1.67
2024-03-14T18:40:28.269Z,0.82
2024-03-14T18:42:58.570Z,1.38
2024-03-14T18:45:26.015Z,1.00
2024-03-14T18:47:52.640Z,0.82
2024-03-14T18:50:22.916Z,2.65
2024-03-14T18:52:52.134Z,1.50
2024-03-14T18:55:21.827Z,2.72
2024-03-14T18:57:49.915Z,1.73
2024-03-14T19:00:20.511Z,1.85
2024-03-14T19:02:48.179Z,0.88
2024-03-14T19:05:14.814Z,1.95
2024-03-14T19:07:41.426Z,1.52
2024-03-14T19:10:08.233Z,1.23
2024-03-14T19:12:34.849Z,0.70
2024-03-14T19:15:01.600Z,0.88
2024-03-14T19:17:28.313Z,1.60
2024-03-14T19:19:54.945Z,3.38
2024-03-14T19:22:22.462Z,1.20
2024-03-14T19:24:49.693Z,1.83
2024-03-14T19:27:17.047Z,0.80
2024-03-14T19:29:43.927Z,3.20
2024-03-14T19:32:10.631Z,1.17
2024-03-14T19:34:37.319Z,0.70
2024-03-14T19:37:05.095Z,3.13
2024-03-14T19:39:34.242Z,3.28
2024-03-14T19:42:01.652Z,3.28
2024-03-14T19:44:31.154Z,4.00
2024-03-14T19:46:58.734Z,1.38
2024-03-14T19:49:25.778Z,1.13
2024-03-14T19:51:52.452Z,2.28
2024-03-14T19:54:19.205Z,1.95
2024-03-14T19:56:46.121Z,1.40
2024-03-14T19:59:12.819Z,3.05
2024-03-14T20:01:39.739Z,1.08
2024-03-14T20:04:06.701Z,1.67
2024-03-14T20:06:33.460Z,1.42
2024-03-14T20:09:00.234Z,2.63
2024-03-14T20:11:27.098Z,2.72
2024-03-14T20:13:53.721Z,1.52
2024-03-14T20:16:20.368Z,2.67
2024-03-14T20:18:47.686Z,1.48
2024-03-14T20:21:15.199Z,1.80
2024-03-14T20:23:44.130Z,1.95
2024-03-14T20:26:12.879Z,2.33
2024-03-14T20:28:40.653Z,2.25
2024-03-14T20:31:09.265Z,0.95
2024-03-14T20:33:36.816Z,2.28
2024-03-14T20:36:05.683Z,3.25
2024-03-14T20:38:33.309Z,1.77
2024-03-14T20:41:03.069Z,3.50
2024-03-14T20:43:31.428Z,3.22
2024-03-14T20:45:58.142Z,1.67
2024-03-14T20:48:25.152Z,3.97
2024-03-14T20:50:52.023Z,1.55
2024-03-14T20:53:19.121Z,2.03
2024-03-14T20:55:55.971Z,5.47
2024-03-14T20:58:26.301Z,2.03
2024-03-14T21:00:53.705Z,2.60
2024-03-14T21:03:20.469Z,2.20
2024-03-14T21:05:48.965Z,3.17
2024-03-14T21:08:17.590Z,3.50
2024-03-14T21:10:47.331Z,2.47
2024-03-14T21:13:14.186Z,4.15
2024-03-14T21:15:41.362Z,5.53
2024-03-14T21:18:08.416Z,4.10
2024-03-14T21:20:35.253Z,6.40
2024-03-14T21:23:03.264Z,6.03
2024-03-14T21:25:30.308Z,4.00
2024-03-14T21:28:03.109Z,3.47
2024-03-14T21:30:30.051Z,3.78
2024-03-14T21:32:57.125Z,5.57
2024-03-14T21:35:24.246Z,4.57
2024-03-14T21:37:52.723Z,5.90
2024-03-14T21:40:23.580Z,4.13
2024-03-14T21:42:51.686Z,4.90
2024-03-14T21:45:19.887Z,3.78
2024-03-14T21:47:47.301Z,6.07
2024-03-14T21:50:17.530Z,5.32
2024-03-14T21:52:45.739Z,6.00
2024-03-14T21:55:15.342Z,4.75
2024-03-14T21:57:45.977Z,4.75
2024-03-14T22:00:18.122Z,6.25
2024-03-14T22:02:48.035Z,4.75
2024-03-14T22:05:15.201Z,8.07
2024-03-14T22:07:41.814Z,7.20
2024-03-14T22:10:09.036Z,7.57
2024-03-14T22:12:36.070Z,5.43
2024-03-14T22:15:04.228Z,6.22
2024-03-14T22:17:32.301Z,5.95
2024-03-14T22:19:59.159Z,5.25
2024-03-14T22:22:25.852Z,8.90
2024-03-14T22:24:52.478Z,7.50
2024-03-14T22:27:19.212Z,5.85
2024-03-14T22:29:45.823Z,6.00
2024-03-14T22:32:12.405Z,6.03
2024-03-14T22:34:39.105Z,7.57
2024-03-14T22:37:06.117Z,7.20
2024-03-14T22:39:33.548Z,9.13
2024-03-14T22:42:00.345Z,6.63
2024-03-14T22:44:26.948Z,7.75
2024-03-14T22:46:53.510Z,7.05
2024-03-14T22:49:20.443Z,6.85
2024-03-14T22:51:47.109Z,6.65
2024-03-14T22:54:14.224Z,8.48
2024-03-14T22:56:40.900Z,7.88
2024-03-14T22:59:08.344Z,7.70
2024-03-14T23:01:38.644Z,6.57
2024-03-14T23:04:09.484Z,6.78
2024-03-14T23:06:39.427Z,8.27
2024-03-14T23:09:09.645Z,8.00
2024-03-14T23:11:36.389Z,7.50
2024-03-14T23:14:03.491Z,6.85
2024-03-14T23:16:34.137Z,6.88
2024-03-14T23:19:04.186Z,8.98
2024-03-14T23:21:31.546Z,6.70
2024-03-14T23:23:59.182Z,10.15
2024-03-14T23:26:33.400Z,6.63
2024-03-14T23:29:03.091Z,6.03
2024-03-14T23:31:30.340Z,5.75
2024-03-14T23:33:57.274Z,5.72
2024-03-14T23:36:23.989Z,7.78
2024-03-14T23:38:51.383Z,8.20
2024-03-14T23:41:18.222Z,5.45
2024-03-14T23:43:47.015Z,6.30
2024-03-14T23:46:15.253Z,7.97
2024-03-14T23:48:42.299Z,7.65
2024-03-14T23:51:10.145Z,8.70
2024-03-14T23:53:37.015Z,5.97
2024-03-14T23:56:03.943Z,6.30
2024-03-14T23:58:30.537Z,9.55
